createdAt,value
2018-03-22T00:00:29.928Z,93691.56
2018-03-22T00:02:56.433Z,93690.95
2018-03-22T00:05:22.764Z,93699.50
2018-03-22T00:07:49.535Z,93694.14
2018-03-22T00:10:15.825Z,93696.19
2018-03-22T00:12:42.242Z,93694.95
2018-03-22T00:15:08.627Z,93691.93
2018-03-22T00:17:35.045Z,93675.55
2018-03-22T00:20:01.641Z,93678.02
2018-03-22T00:22:38.491Z,93683.14
2018-03-22T00:25:04.917Z,93680.59
2018-03-22T00:27:31.328Z,93684.47
2018-03-22T00:29:57.826Z,93679.94
2018-03-22T00:32:24.238Z,93685.81
2018-03-22T00:34:50.683Z,93681.08
2018-03-22T00:37:17.106Z,93682.09
2018-03-22T00:39:43.526Z,93679.91
2018-03-22T00:42:10.015Z,93675.30
2018-03-22T00:44:36.442Z,93665.98
2018-03-22T00:47:02.814Z,93656.61
2018-03-22T00:49:29.207Z,93655.69
2018-03-22T00:51:55.647Z,93648.36
2018-03-22T00:54:22.067Z,93642.59
2018-03-22T00:56:48.447Z,93654.39
2018-03-22T00:59:14.934Z,93648.02
2018-03-22T01:01:41.310Z,93653.41
2018-03-22T01:04:07.633Z,93664.91
2018-03-22T01:06:34.074Z,93668.79
2018-03-22T01:09:00.421Z,93669.80
2018-03-22T01:11:26.815Z,93667.93
2018-03-22T01:13:53.228Z,93658.38
2018-03-22T01:16:19.562Z,93651.16
2018-03-22T01:18:45.865Z,93643.17
2018-03-22T01:21:12.365Z,93637.09
2018-03-22T01:23:38.675Z,93647.29
2018-03-22T01:26:05.078Z,93643.13
2018-03-22T01:28:31.461Z,93635.42
2018-03-22T01:30:57.852Z,93643.47
2018-03-22T01:33:24.162Z,93648.61
2018-03-22T01:35:50.558Z,93649.99
2018-03-22T01:38:16.898Z,93644.95
2018-03-22T01:40:43.242Z,93634.69
2018-03-22T01:43:09.736Z,93638.36
2018-03-22T01:45:36.073Z,93643.00
2018-03-22T01:48:02.488Z,93647.75
2018-03-22T01:50:28.913Z,93647.26
2018-03-22T01:53:07.580Z,93644.89
2018-03-22T01:55:33.956Z,93641.11
2018-03-22T01:58:00.292Z,93634.77
2018-03-22T02:00:26.653Z,93640.21
2018-03-22T02:02:53.156Z,93639.01
2018-03-22T02:05:19.490Z,93623.31
2018-03-22T02:07:45.788Z,93619.56
2018-03-22T02:10:12.177Z,93625.56
2018-03-22T02:12:38.538Z,93615.78
2018-03-22T02:15:04.932Z,93619.48
2018-03-22T02:17:31.343Z,93617.88
2018-03-22T02:19:57.675Z,93612.36
2018-03-22T02:22:24.084Z,93588.38
2018-03-22T02:24:50.480Z,93570.92
2018-03-22T02:27:16.857Z,93577.74
2018-03-22T02:29:43.152Z,93581.56
2018-03-22T02:32:09.595Z,93586.13
2018-03-22T02:34:35.946Z,93597.23
2018-03-22T02:37:02.269Z,93582.50
2018-03-22T02:39:28.628Z,93569.28
2018-03-22T02:41:55.019Z,93574.73
2018-03-22T02:44:21.362Z,93563.80
2018-03-22T02:46:47.648Z,93554.37
2018-03-22T02:49:13.978Z,93551.91
2018-03-22T02:51:40.317Z,93545.41
2018-03-22T02:54:06.710Z,93543.40
2018-03-22T02:56:33.092Z,93537.00
2018-03-22T02:58:59.549Z,93533.20
2018-03-22T03:01:26.135Z,93525.27
2018-03-22T03:03:52.559Z,93516.27
2018-03-22T03:06:18.898Z,93519.25
2018-03-22T03:08:45.268Z,93524.72
2018-03-22T03:11:11.746Z,93526.41
2018-03-22T03:13:38.082Z,93524.77
2018-03-22T03:16:04.472Z,93532.02
2018-03-22T03:18:30.811Z,93541.74
2018-03-22T03:20:57.114Z,93528.57
2018-03-22T03:23:23.480Z,93524.86
2018-03-22T03:25:49.803Z,93521.43
2018-03-22T03:28:16.127Z,93510.39
2018-03-22T03:30:42.479Z,93498.19
2018-03-22T03:33:08.841Z,93500.27
2018-03-22T03:35:35.138Z,93501.67
2018-03-22T03:38:01.535Z,93512.18
2018-03-22T03:40:27.828Z,93508.77
2018-03-22T03:42:54.200Z,93506.22
2018-03-22T03:45:20.582Z,93505.36
2018-03-22T03:47:47.407Z,93515.02
2018-03-22T03:50:13.800Z,93513.98
2018-03-22T03:52:40.210Z,93518.96
2018-03-22T03:55:06.514Z,93520.70
2018-03-22T03:57:32.839Z,93515.19
2018-03-22T03:59:59.183Z,93506.38
2018-03-22T04:02:25.643Z,93504.22
2018-03-22T04:04:52.025Z,93506.89
2018-03-22T04:07:18.365Z,93497.44
2018-03-22T04:09:44.740Z,93495.88
2018-03-22T04:12:11.088Z,93492.44
2018-03-22T04:14:37.476Z,93484.23
2018-03-22T04:17:03.956Z,93482.80
2018-03-22T04:19:30.292Z,93486.07
2018-03-22T04:21:56.678Z,93489.95
2018-03-22T04:24:23.000Z,93487.32
2018-03-22T04:26:50.415Z,93488.59
2018-03-22T04:29:16.758Z,93494.52
2018-03-22T04:31:43.184Z,93498.70
2018-03-22T04:34:09.530Z,93499.70
2018-03-22T04:36:35.878Z,93484.02
2018-03-22T04:39:02.315Z,93473.39
2018-03-22T04:41:28.723Z,93466.17
2018-03-22T04:43:55.098Z,93470.45
2018-03-22T04:46:21.499Z,93471.62
2018-03-22T04:48:47.848Z,93482.63
2018-03-22T04:51:14.345Z,93472.88
2018-03-22T04:53:40.709Z,93463.48
2018-03-22T04:56:07.113Z,93458.47
2018-03-22T04:58:33.482Z,93471.19
2018-03-22T05:00:59.803Z,93469.92
2018-03-22T05:03:26.204Z,93454.22
2018-03-22T05:05:52.709Z,93462.78
2018-03-22T05:08:19.011Z,93464.77
2018-03-22T05:10:45.344Z,93462.72
2018-03-22T05:13:11.841Z,93456.77
2018-03-22T05:15:38.196Z,93454.98
2018-03-22T05:18:04.645Z,93446.94
2018-03-22T05:20:31.051Z,93446.80
2018-03-22T05:22:57.491Z,93445.55
2018-03-22T05:25:23.847Z,93448.67
2018-03-22T05:27:50.447Z,93459.29
2018-03-22T05:30:16.829Z,93454.72
2018-03-22T05:32:43.206Z,93444.95
2018-03-22T05:35:09.668Z,93443.81
2018-03-22T05:37:36.069Z,93444.63
2018-03-22T05:40:02.650Z,93453.59
2018-03-22T05:42:29.106Z,93467.55
2018-03-22T05:44:55.453Z,93464.59
2018-03-22T05:47:21.851Z,93464.92
2018-03-22T05:49:48.333Z,93464.88
2018-03-22T05:52:14.935Z,93465.71
2018-03-22T05:54:41.522Z,93468.87
2018-03-22T05:57:07.972Z,93462.84
2018-03-22T05:59:34.327Z,93472.17
2018-03-22T06:02:01.020Z,93478.08
2018-03-22T06:04:27.539Z,93469.11
2018-03-22T06:06:54.763Z,93455.80
2018-03-22T06:09:21.169Z,93453.53
2018-03-22T06:11:47.649Z,93454.80
2018-03-22T06:14:14.217Z,93458.70
2018-03-22T06:16:40.684Z,93452.77
2018-03-22T06:19:07.159Z,93445.20
2018-03-22T06:21:33.706Z,93426.11
2018-03-22T06:24:00.164Z,93411.33
2018-03-22T06:26:26.677Z,93385.19
2018-03-22T06:28:53.190Z,93350.52
2018-03-22T06:31:19.757Z,93351.91
2018-03-22T06:33:46.216Z,93359.00
2018-03-22T06:36:12.609Z,93363.77
2018-03-22T06:38:39.012Z,93364.13
2018-03-22T06:41:05.452Z,93377.70
2018-03-22T06:43:31.848Z,93393.30
2018-03-22T06:45:58.424Z,93406.41
2018-03-22T06:48:24.860Z,93421.08
2018-03-22T06:50:51.322Z,93428.26
2018-03-22T06:53:17.851Z,93426.13
2018-03-22T06:55:44.300Z,93417.88
2018-03-22T06:58:10.778Z,93419.52
2018-03-22T07:00:37.580Z,93436.19
2018-03-22T07:03:04.062Z,93433.52
2018-03-22T07:05:30.423Z,93422.59
2018-03-22T07:07:57.746Z,93423.28
2018-03-22T07:10:24.145Z,93415.14
2018-03-22T07:12:50.550Z,93411.10
2018-03-22T07:15:16.966Z,93406.59
2018-03-22T07:17:43.337Z,93403.83
2018-03-22T07:20:09.656Z,93396.79
2018-03-22T07:22:36.101Z,93388.64
2018-03-22T07:25:02.954Z,93372.93
2018-03-22T07:27:29.360Z,93379.59
2018-03-22T07:29:55.771Z,93373.20
2018-03-22T07:32:22.231Z,93381.88
2018-03-22T07:34:48.552Z,93368.30
2018-03-22T07:37:14.978Z,93357.03
2018-03-22T07:39:41.374Z,93354.77
2018-03-22T07:42:07.869Z,93351.62
2018-03-22T07:44:40.238Z,93355.16
2018-03-22T07:47:06.606Z,93347.13
2018-03-22T07:49:32.951Z,93344.25
2018-03-22T07:51:59.473Z,93351.57
2018-03-22T07:54:25.898Z,93347.36
2018-03-22T07:56:52.317Z,93340.98
2018-03-22T07:59:18.786Z,93344.00
2018-03-22T08:01:45.168Z,93337.67
2018-03-22T08:04:11.578Z,93329.84
2018-03-22T08:06:38.057Z,93323.87
2018-03-22T08:09:04.528Z,93324.20
2018-03-22T08:11:31.086Z,93320.76
2018-03-22T08:13:57.502Z,93321.92
2018-03-22T08:16:24.239Z,93321.02
2018-03-22T08:18:50.944Z,93315.30
2018-03-22T08:21:17.418Z,93319.39
2018-03-22T08:23:43.886Z,93316.55
2018-03-22T08:26:10.273Z,93311.70
2018-03-22T08:28:36.752Z,93311.66
2018-03-22T08:31:03.154Z,93304.19
2018-03-22T08:33:29.585Z,93298.69
2018-03-22T08:35:56.257Z,93291.41
2018-03-22T08:38:22.705Z,93282.28
2018-03-22T08:40:49.112Z,93277.63
2018-03-22T08:43:15.601Z,93267.29
2018-03-22T08:45:42.142Z,93265.44
2018-03-22T08:48:08.573Z,93258.55
2018-03-22T08:50:34.987Z,93245.86
2018-03-22T08:53:01.424Z,93243.25
2018-03-22T08:55:27.756Z,93253.69
2018-03-22T08:57:54.332Z,93265.72
2018-03-22T09:00:20.790Z,93253.46
2018-03-22T09:02:47.256Z,93234.27
2018-03-22T09:05:13.703Z,93227.53
2018-03-22T09:07:40.174Z,93230.05
2018-03-22T09:10:06.804Z,93226.13
2018-03-22T09:12:33.376Z,93210.28
2018-03-22T09:14:59.824Z,93214.45
2018-03-22T09:17:26.333Z,93206.97
2018-03-22T09:19:52.810Z,93208.59
2018-03-22T09:22:19.277Z,93212.22
2018-03-22T09:24:45.683Z,93205.62
2018-03-22T09:27:12.497Z,93201.20
2018-03-22T09:29:39.217Z,93198.20
2018-03-22T09:32:05.696Z,93181.64
2018-03-22T09:34:32.193Z,93182.88
2018-03-22T09:36:58.595Z,93170.77
2018-03-22T09:39:25.027Z,93161.08
2018-03-22T09:41:51.531Z,93147.97
2018-03-22T09:44:18.228Z,93151.95
2018-03-22T09:46:44.660Z,93156.27
2018-03-22T09:49:11.095Z,93157.50
2018-03-22T09:51:37.514Z,93145.97
2018-03-22T09:54:04.011Z,93143.77
2018-03-22T09:56:30.480Z,93133.20
2018-03-22T09:58:56.906Z,93126.80
2018-03-22T10:01:23.286Z,93126.28
2018-03-22T10:03:50.464Z,93115.77
2018-03-22T10:06:17.009Z,93114.80
2018-03-22T10:08:43.363Z,93122.30
2018-03-22T10:11:09.794Z,93136.09
2018-03-22T10:13:36.242Z,93138.19
2018-03-22T10:16:02.656Z,93118.70
2018-03-22T10:18:29.043Z,93130.50
2018-03-22T10:20:55.463Z,93129.88
2018-03-22T10:23:21.907Z,93114.72
2018-03-22T10:25:48.298Z,93129.45
2018-03-22T10:28:14.633Z,93117.80
2018-03-22T10:30:40.966Z,93124.80
2018-03-22T10:33:07.522Z,93107.20
2018-03-22T10:35:33.926Z,93105.91
2018-03-22T10:38:00.271Z,93095.26
2018-03-22T10:40:26.833Z,93107.65
2018-03-22T10:42:53.302Z,93092.38
2018-03-22T10:45:19.666Z,93084.83
2018-03-22T10:47:46.191Z,93079.84
2018-03-22T10:50:12.697Z,93082.63
2018-03-22T10:52:39.179Z,93080.16
2018-03-22T10:55:05.668Z,93077.29
2018-03-22T10:57:32.038Z,93078.52
2018-03-22T10:59:58.547Z,93079.19
2018-03-22T11:02:31.926Z,93076.08
2018-03-22T11:04:58.529Z,93073.09
2018-03-22T11:07:25.039Z,93063.61
2018-03-22T11:09:51.649Z,93053.34
2018-03-22T11:12:18.043Z,93050.86
2018-03-22T11:14:44.910Z,93048.64
2018-03-22T11:17:12.212Z,93039.08
2018-03-22T11:19:38.627Z,93039.68
2018-03-22T11:22:05.156Z,93036.54
2018-03-22T11:24:31.806Z,93039.61
2018-03-22T11:26:58.173Z,93040.38
2018-03-22T11:29:24.514Z,93040.83
2018-03-22T11:31:50.956Z,93042.23
2018-03-22T11:34:17.412Z,93033.48
2018-03-22T11:36:43.759Z,93019.41
2018-03-22T11:39:10.161Z,93016.67
2018-03-22T11:41:36.638Z,93009.75
2018-03-22T11:44:03.080Z,92996.06
2018-03-22T11:46:29.576Z,92982.97
2018-03-22T11:48:56.031Z,92971.55
2018-03-22T11:51:22.491Z,92970.67
2018-03-22T11:53:49.082Z,92961.15
2018-03-22T11:56:15.472Z,92964.56
2018-03-22T11:58:41.846Z,92949.20
2018-03-22T12:01:08.800Z,92939.41
2018-03-22T12:03:35.193Z,92950.99
2018-03-22T12:06:01.585Z,92955.69
2018-03-22T12:08:28.007Z,92958.77
2018-03-22T12:10:54.410Z,92972.37
2018-03-22T12:13:20.982Z,92966.60
2018-03-22T12:15:47.380Z,92964.92
2018-03-22T12:18:13.807Z,92971.23
2018-03-22T12:20:40.159Z,92950.31
2018-03-22T12:23:06.617Z,92944.63
2018-03-22T12:25:32.986Z,92938.62
2018-03-22T12:27:59.345Z,92928.67
2018-03-22T12:30:25.803Z,92934.58
2018-03-22T12:32:52.201Z,92933.92
2018-03-22T12:35:18.551Z,92941.33
2018-03-22T12:37:44.982Z,92922.64
2018-03-22T12:40:11.577Z,92899.39
2018-03-22T12:42:38.066Z,92898.22
2018-03-22T12:45:04.489Z,92898.01
2018-03-22T12:47:30.918Z,92888.94
2018-03-22T12:49:57.589Z,92869.42
2018-03-22T12:52:24.088Z,92842.92
2018-03-22T12:54:50.733Z,92851.91
2018-03-22T12:57:17.224Z,92836.73
2018-03-22T12:59:43.986Z,92839.47
2018-03-22T13:02:10.585Z,92845.98
2018-03-22T13:04:37.494Z,92849.25
2018-03-22T13:07:04.016Z,92851.94
2018-03-22T13:09:30.906Z,92842.92
2018-03-22T13:11:57.288Z,92842.73
2018-03-22T13:14:23.969Z,92834.08
2018-03-22T13:16:50.360Z,92815.27
2018-03-22T13:19:16.948Z,92812.06
2018-03-22T13:21:43.475Z,92809.10
2018-03-22T13:24:09.973Z,92810.31
2018-03-22T13:26:36.549Z,92809.41
2018-03-22T13:29:03.068Z,92815.77
2018-03-22T13:31:29.847Z,92788.88
2018-03-22T13:33:56.315Z,92775.95
2018-03-22T13:36:22.772Z,92761.73
2018-03-22T13:38:49.489Z,92766.05
2018-03-22T13:41:16.173Z,92767.44
2018-03-22T13:43:42.943Z,92763.87
2018-03-22T13:46:09.303Z,92758.29
2018-03-22T13:48:35.767Z,92753.94
2018-03-22T13:51:02.245Z,92748.62
2018-03-22T13:53:29.103Z,92755.69
2018-03-22T13:55:55.502Z,92751.65
2018-03-22T13:58:21.900Z,92759.22
2018-03-22T14:00:48.285Z,92768.33
2018-03-22T14:03:14.834Z,92759.36
2018-03-22T14:05:42.223Z,92740.74
2018-03-22T14:08:08.700Z,92740.73
2018-03-22T14:10:35.479Z,92748.02
2018-03-22T14:13:01.977Z,92740.52
2018-03-22T14:15:28.295Z,92747.45
2018-03-22T14:17:54.698Z,92728.80
2018-03-22T14:20:21.110Z,92731.31
2018-03-22T14:22:47.761Z,92734.02
2018-03-22T14:25:14.219Z,92710.14
2018-03-22T14:27:40.846Z,92706.95
2018-03-22T14:30:07.253Z,92681.16
2018-03-22T14:32:33.690Z,92703.30
2018-03-22T14:35:00.039Z,92704.56
2018-03-22T14:37:26.373Z,92715.61
2018-03-22T14:39:52.706Z,92723.33
2018-03-22T14:42:19.252Z,92727.42
2018-03-22T14:44:45.711Z,92718.38
2018-03-22T14:47:12.144Z,92719.19
2018-03-22T14:49:38.774Z,92712.05
2018-03-22T14:52:05.120Z,92729.94
2018-03-22T14:54:31.609Z,92726.67
2018-03-22T14:56:58.059Z,92732.64
2018-03-22T14:59:24.473Z,92716.78
2018-03-22T15:01:50.941Z,92692.14
2018-03-22T15:04:17.352Z,92698.49
2018-03-22T15:06:43.703Z,92705.55
2018-03-22T15:09:10.175Z,92673.63
2018-03-22T15:11:36.542Z,92685.44
2018-03-22T15:14:03.893Z,92666.38
2018-03-22T15:16:30.343Z,92669.27
2018-03-22T15:18:57.068Z,92698.28
2018-03-22T15:21:23.455Z,92692.13
2018-03-22T15:23:49.941Z,92676.04
2018-03-22T15:26:16.363Z,92661.41
2018-03-22T15:28:42.789Z,92670.52
2018-03-22T15:31:09.175Z,92591.41
2018-03-22T15:33:35.716Z,92665.86
2018-03-22T15:36:02.303Z,92656.14
2018-03-22T15:38:28.674Z,92651.28
2018-03-22T15:40:55.730Z,92651.02
2018-03-22T15:43:22.128Z,92642.37
2018-03-22T15:45:48.613Z,92642.45
2018-03-22T15:48:15.079Z,92632.75
2018-03-22T15:50:41.449Z,92667.06
2018-03-22T15:53:07.956Z,92656.72
2018-03-22T15:55:34.458Z,92655.44
2018-03-22T15:58:00.960Z,92651.61
2018-03-22T16:00:27.370Z,92630.37
2018-03-22T16:02:53.916Z,92634.66
2018-03-22T16:05:20.377Z,92630.47
2018-03-22T16:07:46.787Z,92646.09
2018-03-22T16:10:13.280Z,92624.55
2018-03-22T16:12:40.053Z,92624.30
2018-03-22T16:15:06.434Z,92635.23
2018-03-22T16:17:32.868Z,92643.13
2018-03-22T16:19:59.284Z,92656.19
2018-03-22T16:22:25.911Z,92645.75
2018-03-22T16:24:52.526Z,92632.27
2018-03-22T16:27:18.974Z,92642.08
2018-03-22T16:29:45.494Z,92648.23
2018-03-22T16:32:11.964Z,92672.80
2018-03-22T16:34:38.464Z,92654.56
2018-03-22T16:37:05.496Z,92652.41
2018-03-22T16:39:32.068Z,92653.99
2018-03-22T16:41:58.942Z,92652.60
2018-03-22T16:44:26.431Z,92645.08
2018-03-22T16:46:53.246Z,92646.03
2018-03-22T16:49:19.900Z,92637.41
2018-03-22T16:51:46.386Z,92600.84
2018-03-22T16:54:12.902Z,92600.15
2018-03-22T16:56:39.331Z,92611.67
2018-03-22T16:59:05.927Z,92621.09
2018-03-22T17:01:32.609Z,92596.95
2018-03-22T17:03:59.719Z,92601.59
2018-03-22T17:06:26.366Z,92592.84
2018-03-22T17:08:53.017Z,92573.35
2018-03-22T17:11:19.476Z,92570.94
2018-03-22T17:13:46.012Z,92582.45
2018-03-22T17:16:12.674Z,92557.38
2018-03-22T17:18:39.139Z,92550.72
2018-03-22T17:21:05.856Z,92562.68
2018-03-22T17:23:32.499Z,92540.74
2018-03-22T17:25:59.013Z,92549.70
2018-03-22T17:28:25.735Z,92560.35
2018-03-22T17:30:52.222Z,92531.59
2018-03-22T17:33:18.726Z,92523.44
2018-03-22T17:35:45.482Z,92519.25
2018-03-22T17:38:11.997Z,92500.55
2018-03-22T17:40:38.457Z,92528.09
2018-03-22T17:43:05.154Z,92500.78
2018-03-22T17:45:31.781Z,92508.52
2018-03-22T17:47:58.392Z,92507.34
2018-03-22T17:50:24.966Z,92477.25
2018-03-22T17:52:52.256Z,92471.62
2018-03-22T17:55:19.196Z,92482.76
2018-03-22T17:57:45.967Z,92476.06
2018-03-22T18:00:12.850Z,92470.10
2018-03-22T18:02:39.616Z,92463.69
2018-03-22T18:05:06.532Z,92489.95
2018-03-22T18:07:33.306Z,92470.20
2018-03-22T18:10:00.112Z,92474.30
2018-03-22T18:12:26.976Z,92500.73
2018-03-22T18:14:55.054Z,92500.78
2018-03-22T18:17:21.816Z,92508.06
2018-03-22T18:19:48.588Z,92474.52
2018-03-22T18:22:15.240Z,92488.13
2018-03-22T18:24:41.885Z,92479.08
2018-03-22T18:27:08.584Z,92472.63
2018-03-22T18:29:35.388Z,92466.56
2018-03-22T18:32:02.072Z,92467.47
2018-03-22T18:34:28.881Z,92458.83
2018-03-22T18:36:55.691Z,92463.83
2018-03-22T18:39:22.424Z,92482.71
2018-03-22T18:41:49.155Z,92483.02
2018-03-22T18:44:16.067Z,92475.98
2018-03-22T18:46:42.913Z,92466.66
2018-03-22T18:49:09.619Z,92455.10
2018-03-22T18:51:36.356Z,92463.42
2018-03-22T18:54:03.298Z,92456.32
2018-03-22T18:56:30.202Z,92448.05
2018-03-22T18:58:56.886Z,92426.16
2018-03-22T19:01:23.575Z,92425.56
2018-03-22T19:03:50.465Z,92409.28
2018-03-22T19:06:17.347Z,92393.58
2018-03-22T19:08:44.245Z,92425.96
2018-03-22T19:11:10.948Z,92403.62
2018-03-22T19:13:37.904Z,92410.09
2018-03-22T19:16:04.627Z,92414.35
2018-03-22T19:18:31.502Z,92393.25
2018-03-22T19:20:59.152Z,92402.07
2018-03-22T19:23:25.813Z,92408.48
2018-03-22T19:25:52.555Z,92387.06
2018-03-22T19:28:19.483Z,92370.02
2018-03-22T19:30:46.538Z,92359.81
2018-03-22T19:33:13.243Z,92355.49
2018-03-22T19:35:40.097Z,92342.85
2018-03-22T19:38:06.775Z,92343.04
2018-03-22T19:40:34.366Z,92339.08
2018-03-22T19:43:01.230Z,92336.53
2018-03-22T19:45:29.105Z,92352.86
2018-03-22T19:47:55.823Z,92345.81
2018-03-22T19:50:22.572Z,92344.77
2018-03-22T19:52:49.363Z,92336.66
2018-03-22T19:55:16.791Z,92332.84
2018-03-22T19:57:43.496Z,92307.88
2018-03-22T20:00:10.121Z,92313.38
2018-03-22T20:02:37.008Z,92339.80
2018-03-22T20:05:03.890Z,92335.57
2018-03-22T20:07:30.705Z,92322.88
2018-03-22T20:09:57.358Z,92315.60
2018-03-22T20:12:24.191Z,92308.73
2018-03-22T20:14:51.119Z,92288.20
2018-03-22T20:17:17.920Z,92287.94
2018-03-22T20:19:44.703Z,92285.60
2018-03-22T20:22:11.420Z,92294.92
2018-03-22T20:24:38.186Z,92270.57
2018-03-22T20:27:05.084Z,92252.53
2018-03-22T20:29:31.706Z,92234.06
2018-03-22T20:31:58.433Z,92243.34
2018-03-22T20:34:25.181Z,92230.88
2018-03-22T20:36:51.830Z,92222.00
2018-03-22T20:39:18.577Z,92228.63
2018-03-22T20:41:45.283Z,92242.28
2018-03-22T20:44:11.926Z,92237.13
2018-03-22T20:46:38.408Z,92225.16
2018-03-22T20:49:05.012Z,92228.68
2018-03-22T20:51:31.608Z,92220.19
2018-03-22T20:53:58.611Z,92217.99
2018-03-22T20:56:25.063Z,92212.66
2018-03-22T20:58:51.550Z,92190.35
2018-03-22T21:01:18.058Z,92195.45
2018-03-22T21:03:44.733Z,92170.83
2018-03-22T21:06:11.555Z,92161.75
2018-03-22T21:08:38.828Z,92153.75
2018-03-22T21:11:05.458Z,92154.11
2018-03-22T21:13:32.808Z,92146.53
2018-03-22T21:15:59.174Z,92152.83
2018-03-22T21:18:25.629Z,92144.73
2018-03-22T21:20:52.023Z,92138.68
2018-03-22T21:23:18.469Z,92128.02
2018-03-22T21:25:44.948Z,92148.92
2018-03-22T21:28:11.393Z,92158.81
2018-03-22T21:30:37.780Z,92146.27
2018-03-22T21:33:04.217Z,92136.28
2018-03-22T21:35:30.616Z,92139.19
2018-03-22T21:37:57.066Z,92142.70
2018-03-22T21:40:23.547Z,92140.66
2018-03-22T21:42:49.925Z,92130.58
2018-03-22T21:45:16.364Z,92134.03
2018-03-22T21:47:42.897Z,92137.55
2018-03-22T21:50:09.279Z,92146.67
2018-03-22T21:52:42.906Z,92140.22
2018-03-22T21:55:09.489Z,92141.68
2018-03-22T21:57:36.069Z,92145.80
2018-03-22T22:00:02.571Z,92165.37
2018-03-22T22:02:28.988Z,92169.24
2018-03-22T22:04:55.485Z,92185.09
2018-03-22T22:07:22.091Z,92204.67
2018-03-22T22:09:48.420Z,92212.17
2018-03-22T22:12:14.790Z,92224.23
2018-03-22T22:14:41.224Z,92260.45
2018-03-22T22:17:08.680Z,92269.39
2018-03-22T22:19:35.176Z,92257.77
2018-03-22T22:22:01.572Z,92278.88
2018-03-22T22:24:28.188Z,92289.97
2018-03-22T22:26:54.526Z,92267.83
2018-03-22T22:29:21.246Z,92239.18
2018-03-22T22:31:47.628Z,92220.48
2018-03-22T22:34:14.161Z,92204.80
2018-03-22T22:36:40.727Z,92167.38
2018-03-22T22:39:07.277Z,92157.80
2018-03-22T22:41:33.662Z,92175.48
2018-03-22T22:44:00.194Z,92214.80
2018-03-22T22:46:26.586Z,92239.47
2018-03-22T22:48:52.935Z,92269.60
2018-03-22T22:51:19.402Z,92267.41
2018-03-22T22:53:46.778Z,92223.16
2018-03-22T22:56:13.108Z,92184.55
2018-03-22T22:58:39.473Z,92155.97
2018-03-22T23:01:05.905Z,92160.00
2018-03-22T23:03:32.293Z,92173.91
2018-03-22T23:05:58.668Z,92170.86
2018-03-22T23:08:25.394Z,92165.46
2018-03-22T23:10:51.786Z,92162.09
2018-03-22T23:13:18.241Z,92153.97
2018-03-22T23:15:44.672Z,92144.26
2018-03-22T23:18:11.072Z,92105.75
2018-03-22T23:20:37.419Z,92098.92
2018-03-22T23:23:03.730Z,92123.77
2018-03-22T23:25:30.110Z,92136.07
2018-03-22T23:34:42.308Z,92130.84
2018-03-22T23:37:08.638Z,92105.68
2018-03-22T23:39:34.979Z,92097.64
2018-03-22T23:42:01.398Z,92089.92
2018-03-22T23:44:27.878Z,92083.42
2018-03-22T23:46:54.254Z,92089.69
2018-03-22T23:49:20.681Z,92077.62
2018-03-22T23:51:47.193Z,92080.55
2018-03-22T23:54:13.608Z,92078.81
2018-03-22T23:56:40.643Z,92067.05
2018-03-22T23:59:07.003Z,92069.86
